Time;durP1;ratioP1;P1;durP2;ratioP2;P2;SDS_P1;SDS_P2;PMS_P1;PMS_P2;Temp;Humidity;BMP_temperature;BMP_pressure;BME280_temperature;BME280_humidity;BME280_pressure;Samples;Min_cycle;Max_cycle;Signal;HPM_P1;HPM_P2
2021/01/12 00:02:51;;;;;;;33.88;22.02;;;;;;;3.33;100.00;100396.97;6272474;28;20049;-78
2021/01/12 00:05:52;;;;;;;36.70;22.13;;;;;;;3.25;100.00;100379.00;6272483;28;20079;-78
2021/01/12 00:08:53;;;;;;;34.53;21.67;;;;;;;3.31;100.00;100375.38;6271831;28;20053;-78
2021/01/12 00:11:54;;;;;;;36.65;22.88;;;;;;;3.34;100.00;100367.50;6272753;28;20045;-79
2021/01/12 00:14:55;;;;;;;40.33;23.10;;;;;;;3.31;100.00;100370.19;6272832;28;20045;-80
2021/01/12 00:17:56;;;;;;;42.45;24.33;;;;;;;3.35;100.00;100358.81;6273275;28;20498;-78
2021/01/12 00:20:57;;;;;;;39.15;23.55;;;;;;;3.33;100.00;100360.63;6272864;28;20049;-80
2021/01/12 00:23:58;;;;;;;41.55;24.80;;;;;;;3.43;100.00;100361.19;6272811;28;20092;-80
2021/01/12 00:26:59;;;;;;;48.28;23.83;;;;;;;3.41;100.00;100363.84;6272604;28;20048;-79
2021/01/12 00:30:00;;;;;;;39.55;23.98;;;;;;;3.52;100.00;100353.13;6272924;28;20053;-78
2021/01/12 00:33:01;;;;;;;43.85;26.05;;;;;;;3.46;100.00;100355.91;6277430;28;20132;-82
2021/01/12 00:36:03;;;;;;;46.08;25.63;;;;;;;3.42;100.00;100349.09;6272360;28;20056;-79
2021/01/12 00:39:04;;;;;;;47.55;26.17;;;;;;;3.42;100.00;100338.72;6271457;28;20049;-79
2021/01/12 00:42:05;;;;;;;49.85;28.75;;;;;;;3.46;100.00;100345.53;6271839;28;20056;-76
2021/01/12 00:45:08;;;;;;;46.13;28.17;;;;;;;3.55;100.00;100340.88;6271236;28;20536;-79
2021/01/12 00:48:10;;;;;;;49.70;28.52;;;;;;;3.54;100.00;100338.31;6271557;28;20053;-77
2021/01/12 00:51:10;;;;;;;49.55;29.60;;;;;;;3.55;100.00;100322.69;6271216;28;20044;-78
2021/01/12 00:54:13;;;;;;;50.28;29.48;;;;;;;3.50;100.00;100323.75;6300231;23;20103;-80
2021/01/12 00:57:14;;;;;;;49.83;29.50;;;;;;;3.59;100.00;100319.97;6295654;28;20052;-80
2021/01/12 01:00:15;;;;;;;50.97;28.92;;;;;;;3.52;100.00;100321.94;6312683;28;20385;-80
2021/01/12 01:03:17;;;;;;;55.47;31.73;;;;;;;3.55;100.00;100314.06;6315289;28;20131;-80
2021/01/12 01:06:19;;;;;;;55.67;32.08;;;;;;;3.62;100.00;100314.69;6296038;28;20468;-80
2021/01/12 01:09:21;;;;;;;56.78;31.02;;;;;;;3.63;100.00;100311.19;6319260;28;20105;-79
2021/01/12 01:12:22;;;;;;;53.55;30.60;;;;;;;3.62;100.00;100296.50;6321752;28;20048;-80
2021/01/12 01:15:23;;;;;;;60.63;32.15;;;;;;;3.61;100.00;100295.66;6321761;28;20109;-80
2021/01/12 01:18:24;;;;;;;55.75;31.33;;;;;;;3.71;100.00;100297.06;6321415;28;20072;-80
2021/01/12 01:21:26;;;;;;;51.92;30.73;;;;;;;3.70;100.00;100291.94;6320858;28;20047;-80
2021/01/12 01:24:26;;;;;;;51.90;29.80;;;;;;;3.75;100.00;100292.63;6321555;28;20106;-80
2021/01/12 01:27:27;;;;;;;51.72;28.90;;;;;;;3.77;100.00;100278.69;6320976;28;20056;-81
2021/01/12 01:30:28;;;;;;;54.03;30.55;;;;;;;3.71;100.00;100286.66;6321175;28;20048;-78
2021/01/12 01:33:30;;;;;;;49.95;30.73;;;;;;;3.74;100.00;100283.97;6321742;28;20051;-80
2021/01/12 01:36:31;;;;;;;50.80;29.90;;;;;;;3.85;100.00;100274.97;6321009;28;20492;-81
2021/01/12 01:39:31;;;;;;;54.30;30.77;;;;;;;3.78;100.00;100275.19;6320743;28;20143;-81
2021/01/12 01:42:32;;;;;;;52.38;30.60;;;;;;;3.73;100.00;100271.06;6321594;28;20492;-80
2021/01/12 01:45:33;;;;;;;50.38;29.70;;;;;;;3.76;100.00;100261.38;6321202;28;20520;-80
2021/01/12 01:48:36;;;;;;;46.22;28.42;;;;;;;3.73;100.00;100258.91;6321564;28;20052;-81
2021/01/12 01:51:37;;;;;;;51.53;29.73;;;;;;;3.72;100.00;100262.38;6321378;28;20048;-81
2021/01/12 01:54:39;;;;;;;50.53;28.40;;;;;;;3.92;100.00;100255.69;6321359;28;20055;-81
2021/01/12 01:57:39;;;;;;;51.50;29.52;;;;;;;3.78;100.00;100253.56;6324895;28;20121;-81
2021/01/12 02:00:40;;;;;;;51.85;29.98;;;;;;;3.75;100.00;100256.25;6325843;28;20044;-81
2021/01/12 02:03:48;;;;;;;56.20;30.58;;;;;;;3.75;100.00;100251.88;6326051;28;20420;-81
2021/01/12 02:06:50;;;;;;;50.95;30.05;;;;;;;3.75;100.00;100246.69;6325436;28;20113;-81
2021/01/12 02:09:53;;;;;;;51.75;28.83;;;;;;;3.76;100.00;100237.16;6325963;28;20048;-81
2021/01/12 02:12:59;;;;;;;47.97;28.00;;;;;;;3.77;100.00;100237.13;6326095;28;20413;-80
2021/01/12 02:16:01;;;;;;;48.35;27.40;;;;;;;3.81;100.00;100237.84;6325583;28;20060;-81
2021/01/12 02:19:06;;;;;;;46.15;27.63;;;;;;;3.79;100.00;100232.69;6325992;28;20058;-81
2021/01/12 02:22:07;;;;;;;42.80;26.85;;;;;;;3.80;100.00;100225.75;6326156;28;20109;-80
2021/01/12 02:25:10;;;;;;;44.58;26.20;;;;;;;3.81;100.00;100210.13;6325784;28;20047;-81
2021/01/12 02:28:12;;;;;;;41.65;25.05;;;;;;;3.87;100.00;100216.00;6325171;28;20055;-81
2021/01/12 02:31:15;;;;;;;44.60;26.85;;;;;;;3.94;100.00;100225.28;6325240;28;20066;-78
2021/01/12 02:34:18;;;;;;;43.60;24.83;;;;;;;3.88;100.00;100210.75;6325517;28;20135;-80
2021/01/12 02:37:20;;;;;;;42.22;25.15;;;;;;;3.88;100.00;100194.31;6325173;28;20097;-80
2021/01/12 02:40:22;;;;;;;38.22;23.95;;;;;;;3.93;100.00;100197.59;6324679;28;20062;-80
2021/01/12 02:43:23;;;;;;;37.72;24.52;;;;;;;3.96;100.00;100193.16;6325151;28;20044;-80
2021/01/12 02:46:24;;;;;;;39.50;23.02;;;;;;;3.94;100.00;100178.50;6324753;28;20101;-81
2021/01/12 02:49:24;;;;;;;41.38;22.95;;;;;;;3.91;100.00;100173.41;6325580;28;20048;-81
2021/01/12 02:52:25;;;;;;;36.45;23.35;;;;;;;3.89;100.00;100157.84;6325244;28;20051;-81
2021/01/12 02:55:27;;;;;;;40.15;23.67;;;;;;;3.90;100.00;100161.28;6324812;28;20055;-81
2021/01/12 02:58:28;;;;;;;37.88;23.08;;;;;;;3.91;100.00;100153.47;6324823;28;20055;-80
2021/01/12 03:01:28;;;;;;;38.72;23.50;;;;;;;3.90;100.00;100138.75;6324257;28;20044;-81
2021/01/12 03:04:29;;;;;;;42.05;23.77;;;;;;;3.92;100.00;100146.50;6324581;28;20402;-81
2021/01/12 03:07:30;;;;;;;38.97;24.00;;;;;;;3.98;100.00;100134.13;6322955;28;20054;-80
2021/01/12 03:10:32;;;;;;;35.47;22.50;;;;;;;4.04;100.00;100117.44;6324571;28;20052;-80
2021/01/12 03:13:33;;;;;;;34.35;22.60;;;;;;;3.97;100.00;100123.81;6324513;28;20047;-80
2021/01/12 03:16:34;;;;;;;34.92;21.42;;;;;;;3.99;100.00;100114.19;6324435;28;20055;-81
2021/01/12 03:19:35;;;;;;;37.80;22.70;;;;;;;3.99;100.00;100107.22;6324117;28;20185;-82
2021/01/12 03:22:35;;;;;;;35.25;23.17;;;;;;;4.04;100.00;100123.53;6324225;28;20044;-79
2021/01/12 03:25:37;;;;;;;35.83;21.83;;;;;;;4.02;100.00;100109.72;6323954;28;20723;-80
2021/01/12 03:28:38;;;;;;;39.13;23.63;;;;;;;4.01;100.00;100102.00;6323718;28;20493;-80
2021/01/12 03:31:39;;;;;;;33.67;21.38;;;;;;;4.03;100.00;100105.38;6324168;28;20043;-80
2021/01/12 03:34:40;;;;;;;32.45;20.15;;;;;;;4.05;100.00;100087.97;6323553;28;20044;-81
2021/01/12 03:37:40;;;;;;;36.55;22.25;;;;;;;4.02;100.00;100091.53;6323585;28;20055;-80
2021/01/12 03:40:42;;;;;;;32.00;20.35;;;;;;;4.08;100.00;100077.44;6323203;28;20048;-80
2021/01/12 03:43:43;;;;;;;29.08;18.10;;;;;;;4.09;100.00;100071.38;6323331;28;20052;-80
2021/01/12 03:46:44;;;;;;;28.17;17.67;;;;;;;4.10;100.00;100067.84;6323139;28;20074;-80
2021/01/12 03:49:45;;;;;;;27.33;18.13;;;;;;;4.17;100.00;100071.06;6323032;28;20052;-80
2021/01/12 03:52:46;;;;;;;27.02;17.48;;;;;;;4.15;100.00;100055.53;6323512;28;20039;-80
2021/01/12 03:55:49;;;;;;;26.98;17.80;;;;;;;4.21;100.00;100059.63;6323306;28;20501;-80
2021/01/12 03:58:49;;;;;;;25.17;17.27;;;;;;;4.17;100.00;100047.66;6323344;28;20055;-80
2021/01/12 04:01:50;;;;;;;27.45;17.38;;;;;;;4.18;100.00;100049.34;6323494;28;20044;-81
2021/01/12 04:04:51;;;;;;;26.70;17.42;;;;;;;4.12;100.00;100053.03;6323327;28;20051;-80
2021/01/12 04:07:52;;;;;;;27.52;18.17;;;;;;;4.12;100.00;100040.03;6323171;28;20048;-81
2021/01/12 04:10:54;;;;;;;27.00;17.75;;;;;;;4.16;100.00;100035.56;6323467;28;20174;-81
2021/01/12 04:13:55;;;;;;;26.23;17.05;;;;;;;4.22;100.00;100036.16;6323109;28;20059;-80
2021/01/12 04:16:55;;;;;;;25.73;17.40;;;;;;;4.12;100.00;100039.19;6323500;28;20048;-80
2021/01/12 04:19:56;;;;;;;27.05;17.70;;;;;;;4.10;100.00;100028.84;6322315;28;20124;-81
2021/01/12 04:22:57;;;;;;;32.22;19.90;;;;;;;4.07;100.00;100024.59;6322921;28;20048;-81
2021/01/12 04:25:59;;;;;;;26.92;17.58;;;;;;;4.13;100.00;100025.25;6322581;28;20063;-79
2021/01/12 04:29:00;;;;;;;29.63;17.85;;;;;;;4.08;100.00;100015.88;6322558;28;20101;-80
2021/01/12 04:32:00;;;;;;;25.75;16.65;;;;;;;4.19;100.00;100017.25;6323001;28;20044;-80
2021/01/12 04:35:01;;;;;;;26.52;17.33;;;;;;;4.09;100.00;100016.75;6322503;28;20466;-80
2021/01/12 04:38:03;;;;;;;26.92;17.45;;;;;;;4.09;100.00;100014.16;6322492;28;20511;-80
2021/01/12 04:41:04;;;;;;;32.10;19.15;;;;;;;4.11;100.00;100011.50;6319302;28;20054;-81
2021/01/12 04:44:05;;;;;;;26.13;16.45;;;;;;;4.20;100.00;99996.38;6311309;28;20051;-81
2021/01/12 04:47:07;;;;;;;26.85;16.33;;;;;;;4.18;100.00;100002.53;6301722;28;20446;-81
2021/01/12 04:50:08;;;;;;;27.50;16.95;;;;;;;4.10;100.00;99991.59;6322137;28;20060;-80
2021/01/12 04:53:09;;;;;;;26.75;17.10;;;;;;;4.07;100.00;99980.41;6322457;28;20408;-81
2021/01/12 04:56:11;;;;;;;26.55;17.65;;;;;;;4.24;100.00;99979.75;6321832;28;20048;-80
2021/01/12 04:59:12;;;;;;;26.35;16.70;;;;;;;4.18;100.00;99973.94;6321888;28;20055;-79
2021/01/12 05:02:13;;;;;;;29.85;16.83;;;;;;;4.17;100.00;99969.63;6313762;28;20047;-81
2021/01/12 05:05:14;;;;;;;24.55;16.42;;;;;;;4.18;100.00;99963.53;6322430;28;20052;-81
2021/01/12 05:08:17;;;;;;;25.48;16.65;;;;;;;4.18;100.00;99951.41;6322116;28;20416;-81
2021/01/12 05:11:19;;;;;;;25.38;16.17;;;;;;;4.19;100.00;99947.03;6321883;28;20139;-81
2021/01/12 05:14:24;;;;;;;23.00;15.30;;;;;;;4.16;100.00;99950.59;6322357;28;20048;-81
2021/01/12 05:17:30;;;;;;;24.83;16.27;;;;;;;4.17;100.00;99933.25;6321800;28;20130;-81
2021/01/12 05:20:37;;;;;;;23.10;15.43;;;;;;;4.20;100.00;99928.75;6321833;28;20518;-80
2021/01/12 05:23:50;;;;;;;24.75;15.13;;;;;;;4.21;100.00;99916.59;6321767;28;20048;-80
2021/01/12 05:26:52;;;;;;;24.65;15.70;;;;;;;4.26;100.00;99925.06;6321857;28;20044;-81
2021/01/12 05:30:01;;;;;;;25.63;15.40;;;;;;;4.25;100.00;99924.22;6320919;28;20063;-78
2021/01/12 05:33:03;;;;;;;23.05;15.23;;;;;;;4.20;100.00;99922.72;6321809;28;20051;-81
2021/01/12 05:36:05;;;;;;;26.55;15.98;;;;;;;4.22;100.00;99918.28;6321363;28;20051;-81
2021/01/12 05:39:06;;;;;;;25.02;16.15;;;;;;;4.31;100.00;99925.72;6321486;28;20048;-80
2021/01/12 05:42:10;;;;;;;26.23;16.90;;;;;;;4.26;100.00;99914.66;6321649;28;20079;-81
2021/01/12 05:45:11;;;;;;;26.40;16.58;;;;;;;4.28;100.00;99907.66;6321778;28;20044;-81
2021/01/12 05:48:12;;;;;;;27.77;15.57;;;;;;;4.31;100.00;99904.91;6321737;28;20547;-81
2021/01/12 05:51:15;;;;;;;25.23;16.02;;;;;;;4.31;100.00;99902.31;6320906;28;20123;-80
2021/01/12 05:54:32;;;;;;;23.42;15.25;;;;;;;4.31;100.00;99895.38;6320979;28;20052;-81
2021/01/12 05:57:39;;;;;;;26.58;15.77;;;;;;;4.33;100.00;99890.09;6321202;28;20075;-81
2021/01/12 06:00:42;;;;;;;28.90;16.08;;;;;;;4.32;100.00;99897.06;6320652;28;20063;-81
2021/01/12 06:03:44;;;;;;;26.15;16.20;;;;;;;4.32;100.00;99891.88;6321162;28;20048;-81
2021/01/12 06:06:46;;;;;;;22.85;15.23;;;;;;;4.38;100.00;99888.16;6321113;28;20051;-81
2021/01/12 06:09:48;;;;;;;25.00;15.63;;;;;;;4.35;100.00;99896.06;6321110;28;20520;-80
2021/01/12 06:12:56;;;;;;;26.10;16.63;;;;;;;4.35;100.00;99896.06;6321183;28;20416;-78
2021/01/12 06:16:05;;;;;;;25.98;16.88;;;;;;;4.36;100.00;99886.50;6320883;28;20059;-81
2021/01/12 06:19:09;;;;;;;25.73;16.13;;;;;;;4.33;100.00;99896.16;6321028;28;20051;-81
2021/01/12 06:22:18;;;;;;;25.75;16.55;;;;;;;4.37;100.00;99888.22;6321244;28;20048;-80
2021/01/12 06:25:20;;;;;;;27.90;17.55;;;;;;;4.34;100.00;99889.19;6321319;28;20110;-81
2021/01/12 06:28:21;;;;;;;30.75;17.63;;;;;;;4.33;100.00;99890.94;6321040;28;20518;-80
2021/01/12 06:31:23;;;;;;;26.92;17.27;;;;;;;4.37;100.00;99890.84;6320885;28;20492;-81
2021/01/12 06:34:24;;;;;;;27.40;16.17;;;;;;;4.37;100.00;99890.84;6321062;28;20048;-78
2021/01/12 06:37:27;;;;;;;28.27;17.33;;;;;;;4.42;100.00;99889.72;6321148;28;20055;-80
2021/01/12 06:40:30;;;;;;;27.33;17.42;;;;;;;4.40;100.00;99886.31;6320493;28;20446;-81
2021/01/12 06:43:31;;;;;;;27.08;18.20;;;;;;;4.44;100.00;99887.88;6308661;28;20485;-80
2021/01/12 06:46:34;;;;;;;28.70;17.30;;;;;;;4.40;100.00;99886.31;6299851;28;20059;-80
2021/01/12 06:49:35;;;;;;;23.80;16.55;;;;;;;4.62;100.00;99881.06;6300014;28;20049;-79
2021/01/12 06:52:43;;;;;;;21.90;13.40;;;;;;;4.66;100.00;99879.19;6323268;28;20044;-80
2021/01/12 06:55:44;;;;;;;24.90;14.88;;;;;;;4.59;100.00;99878.63;6338125;22;20040;-79
2021/01/12 06:58:46;;;;;;;20.42;13.10;;;;;;;4.58;100.00;99882.94;6298276;28;20128;-79
2021/01/12 07:01:48;;;;;;;20.77;14.80;;;;;;;4.61;100.00;99881.13;6276780;28;20048;-78
2021/01/12 07:04:57;;;;;;;23.10;14.35;;;;;;;4.56;100.00;99887.38;6286414;28;20130;-79
2021/01/12 07:08:00;;;;;;;26.30;14.90;;;;;;;4.63;100.00;99879.31;6305126;28;20052;-78
2021/01/12 07:11:03;;;;;;;23.17;14.23;;;;;;;4.58;100.00;99882.94;6324454;28;20055;-78
2021/01/12 07:14:05;;;;;;;24.80;15.05;;;;;;;4.52;100.00;99883.22;6326161;28;20059;-78
2021/01/12 07:17:07;;;;;;;24.02;15.55;;;;;;;4.53;100.00;99877.09;6325648;28;20063;-78
2021/01/12 07:20:16;;;;;;;22.10;14.75;;;;;;;4.54;100.00;99880.53;6322423;28;20044;-78
2021/01/12 07:23:17;;;;;;;19.45;13.10;;;;;;;4.75;100.00;99878.78;6301931;28;20067;-79
2021/01/12 07:26:18;;;;;;;17.40;11.52;;;;;;;4.64;100.00;99884.47;6300668;28;20060;-79
2021/01/12 07:29:20;;;;;;;19.17;11.68;;;;;;;4.62;100.00;99880.22;6299313;28;20048;-78
2021/01/12 07:32:26;;;;;;;17.25;10.73;;;;;;;4.65;100.00;99880.09;6299338;28;20045;-79
2021/01/12 07:35:28;;;;;;;16.55;10.23;;;;;;;4.62;100.00;99881.06;6299104;28;20071;-78
2021/01/12 07:38:30;;;;;;;13.70;8.85;;;;;;;4.84;100.00;99881.84;6299277;28;20059;-79
2021/01/12 07:41:31;;;;;;;12.50;7.78;;;;;;;4.88;100.00;99887.75;6298748;28;20051;-78
2021/01/12 07:44:32;;;;;;;10.48;7.10;;;;;;;5.04;100.00;99886.19;6298291;28;20063;-79
2021/01/12 07:47:33;;;;;;;9.80;6.97;;;;;;;4.96;100.00;99888.28;6298365;28;20060;-79
2021/01/12 07:50:34;;;;;;;11.20;6.43;;;;;;;4.97;100.00;99895.16;6297342;28;20088;-79
2021/01/12 07:53:35;;;;;;;10.57;7.65;;;;;;;4.97;100.00;99902.97;6303943;28;20048;-79
2021/01/12 07:56:36;;;;;;;9.00;6.70;;;;;;;5.07;100.00;99899.03;6310246;28;20645;-79
2021/01/12 07:59:39;;;;;;;9.30;6.63;;;;;;;4.95;100.00;99897.00;6302611;28;20958;-79
2021/01/12 08:02:43;;;;;;;9.80;6.32;;;;;;;4.97;100.00;99902.97;6297693;28;20049;-79
2021/01/12 08:05:44;;;;;;;14.60;9.50;;;;;;;5.06;100.00;99899.97;6297467;28;20040;-79
2021/01/12 08:08:55;;;;;;;10.57;6.95;;;;;;;5.11;100.00;99898.91;6297127;28;20079;-80
2021/01/12 08:12:00;;;;;;;11.50;6.90;;;;;;;5.02;100.00;99905.38;6297373;28;20076;-78
2021/01/12 08:15:13;;;;;;;10.32;6.70;;;;;;;5.14;100.00;99912.66;6297215;28;20437;-77
2021/01/12 08:18:16;;;;;;;11.00;7.38;;;;;;;5.22;100.00;99928.78;6297080;28;20451;-78
2021/01/12 08:21:17;;;;;;;8.75;5.15;;;;;;;5.01;100.00;99940.97;6296697;28;20048;-79
2021/01/12 08:24:22;;;;;;;9.48;4.90;;;;;;;4.81;100.00;99946.19;6297153;28;20492;-78
2021/01/12 08:27:23;;;;;;;9.68;4.63;;;;;;;4.76;100.00;99945.53;6296834;28;20118;-78
2021/01/12 08:30:27;;;;;;;9.00;4.50;;;;;;;4.67;100.00;99951.97;6296722;28;20056;-76
2021/01/12 08:33:32;;;;;;;9.57;4.80;;;;;;;4.72;100.00;99965.63;6296727;28;20048;-78
2021/01/12 08:36:33;;;;;;;8.15;4.20;;;;;;;4.47;100.00;99971.03;6296730;28;20052;-78
2021/01/12 08:39:34;;;;;;;4.90;2.70;;;;;;;4.28;100.00;99981.31;6296317;28;20057;-77
2021/01/12 08:42:38;;;;;;;5.43;2.38;;;;;;;4.21;100.00;99992.03;6293418;28;20090;-75
2021/01/12 08:45:41;;;;;;;5.95;1.50;;;;;;;4.00;100.00;100002.38;6296157;28;20127;-76
2021/01/12 08:48:48;;;;;;;3.75;0.88;;;;;;;3.84;100.00;100005.59;6295797;28;20069;-74
2021/01/12 08:51:50;;;;;;;3.78;0.93;;;;;;;3.52;100.00;100015.41;6296036;28;20135;-77
2021/01/12 08:54:51;;;;;;;3.10;0.98;;;;;;;3.50;100.00;100018.09;6296557;28;20101;-74
2021/01/12 08:57:56;;;;;;;6.82;1.00;;;;;;;3.44;100.00;100030.41;6296041;28;20456;-73
2021/01/12 09:00:59;;;;;;;12.07;1.58;;;;;;;3.35;100.00;100028.16;6295973;28;20044;-75
2021/01/12 09:04:04;;;;;;;6.35;2.08;;;;;;;3.43;100.00;100037.38;6296027;28;20066;-74
2021/01/12 09:07:07;;;;;;;10.43;2.92;;;;;;;3.24;100.00;100052.75;6295311;28;20513;-76
2021/01/12 09:10:09;;;;;;;11.13;1.67;;;;;;;3.21;100.00;100045.06;6295604;28;20084;-76
2021/01/12 09:13:11;;;;;;;6.88;1.48;;;;;;;3.22;100.00;100051.94;6295938;28;20433;-75
2021/01/12 09:16:18;;;;;;;9.57;1.92;;;;;;;3.35;100.00;100056.72;6295798;28;20079;-76
2021/01/12 09:19:19;;;;;;;5.72;1.75;;;;;;;3.25;100.00;100062.22;6295476;28;20052;-76
2021/01/12 09:22:21;;;;;;;6.72;1.35;;;;;;;3.14;100.00;100064.34;6301438;28;20044;-76
2021/01/12 09:25:24;;;;;;;5.82;1.58;;;;;;;3.18;100.00;100067.66;6296441;28;20059;-76
2021/01/12 09:28:26;;;;;;;3.90;1.13;;;;;;;3.21;100.00;100084.00;6295854;28;20048;-80
2021/01/12 09:31:28;;;;;;;7.60;1.02;;;;;;;3.25;100.00;100084.75;6295375;28;20059;-75
2021/01/12 09:34:29;;;;;;;13.30;1.40;;;;;;;3.09;100.00;100088.75;6303894;28;20052;-74
2021/01/12 09:37:30;;;;;;;16.33;1.88;;;;;;;3.15;100.00;100094.59;6309277;28;20174;-76
2021/01/12 09:40:31;;;;;;;9.60;1.20;;;;;;;2.88;100.00;100096.34;6297587;28;20048;-76
2021/01/12 09:43:32;;;;;;;16.40;1.60;;;;;;;2.95;100.00;100097.00;6295500;28;20049;-77
2021/01/12 09:46:36;;;;;;;8.82;1.42;;;;;;;2.87;100.00;100105.03;6300507;28;20410;-75
2021/01/12 09:49:37;;;;;;;9.20;1.00;;;;;;;2.78;100.00;100107.94;6302773;28;20056;-76
2021/01/12 09:52:38;;;;;;;7.18;1.40;;;;;;;2.80;100.00;100111.31;6295347;28;20417;-75
2021/01/12 09:55:38;;;;;;;9.55;0.90;;;;;;;2.87;100.00;100118.03;6295245;28;20052;-75
2021/01/12 09:58:39;;;;;;;7.78;1.45;;;;;;;2.99;100.00;100117.59;6294624;28;20045;-74
2021/01/12 10:01:41;;;;;;;15.25;1.48;;;;;;;2.94;100.00;100122.09;6295191;28;20130;-76
2021/01/12 10:04:42;;;;;;;9.93;1.30;;;;;;;3.02;100.00;100124.44;6295245;28;20052;-73
2021/01/12 10:07:42;;;;;;;12.68;1.70;;;;;;;3.00;100.00;100134.91;6294435;28;20117;-73
2021/01/12 10:10:43;;;;;;;12.75;1.63;;;;;;;3.10;100.00;100134.59;6294783;28;20048;-76
2021/01/12 10:13:45;;;;;;;13.95;0.95;;;;;;;3.13;100.00;100139.66;6295247;28;20052;-74
2021/01/12 10:16:47;;;;;;;4.57;0.93;;;;;;;3.23;100.00;100139.34;6287617;28;20094;-73
2021/01/12 10:19:48;;;;;;;10.77;1.38;;;;;;;3.10;100.00;100148.44;6299493;28;20558;-74
2021/01/12 10:22:48;;;;;;;16.08;0.95;;;;;;;3.09;100.00;100151.03;6299153;28;20053;-73
2021/01/12 10:25:49;;;;;;;20.67;3.50;;;;;;;3.22;100.00;100160.97;6299463;28;20149;-73
2021/01/12 10:28:51;;;;;;;10.43;1.67;;;;;;;3.05;100.00;100163.31;6298664;28;20501;-73
2021/01/12 10:31:52;;;;;;;8.63;1.40;;;;;;;2.96;100.00;100159.25;6299742;28;20405;-75
2021/01/12 10:34:53;;;;;;;14.07;1.52;;;;;;;3.02;100.00;100161.63;6299671;28;20052;-74
2021/01/12 10:37:54;;;;;;;15.50;1.42;;;;;;;3.09;100.00;100154.53;6299218;28;20056;-73
2021/01/12 10:40:55;;;;;;;14.43;1.40;;;;;;;3.15;100.00;100156.06;6297566;28;20126;-73
2021/01/12 10:43:56;;;;;;;14.93;1.80;;;;;;;3.30;100.00;100151.19;6299150;28;20125;-73
2021/01/12 10:46:57;;;;;;;13.82;1.80;;;;;;;3.24;100.00;100153.16;6322732;28;20135;-73
2021/01/12 10:49:58;;;;;;;14.38;1.45;;;;;;;3.24;100.00;100151.41;6305675;28;20501;-72
2021/01/12 10:52:59;;;;;;;17.58;1.85;;;;;;;3.27;100.00;100156.50;6299629;28;20053;-72
2021/01/12 10:56:01;;;;;;;10.43;1.23;;;;;;;3.28;100.00;100154.75;6298681;28;20441;-72
2021/01/12 10:59:02;;;;;;;12.77;1.42;;;;;;;3.19;100.00;100163.69;6299108;28;20052;-73
2021/01/12 11:02:04;;;;;;;17.30;2.70;;;;;;;3.25;100.00;100160.91;6298935;28;20049;-74
2021/01/12 11:05:06;;;;;;;10.02;1.25;;;;;;;3.35;100.00;100160.59;6299469;28;20386;-74
2021/01/12 11:08:07;;;;;;;11.02;1.00;;;;;;;3.41;100.00;100171.66;6298889;28;20114;-75
2021/01/12 11:11:08;;;;;;;11.60;1.45;;;;;;;3.27;100.00;100161.72;6298492;28;20045;-76
2021/01/12 11:14:09;;;;;;;16.42;1.40;;;;;;;3.38;100.00;100171.72;6298876;28;20139;-75
2021/01/12 11:17:13;;;;;;;11.50;1.35;;;;;;;3.20;100.00;100168.00;6296333;28;20509;-74
2021/01/12 11:20:16;;;;;;;14.00;2.13;;;;;;;3.21;100.00;100167.09;6297836;28;20516;-75
2021/01/12 11:23:16;;;;;;;13.25;1.77;;;;;;;3.44;100.00;100175.88;6298577;28;20052;-74
2021/01/12 11:26:17;;;;;;;15.82;2.05;;;;;;;3.24;100.00;100172.19;6298248;28;20076;-77
2021/01/12 11:29:19;;;;;;;10.50;1.48;;;;;;;3.14;100.00;100173.38;6297312;28;20048;-73
2021/01/12 11:32:21;;;;;;;9.52;1.85;;;;;;;3.30;100.00;100165.94;6297216;28;20044;-73
2021/01/12 11:35:23;;;;;;;17.58;2.35;;;;;;;3.57;100.00;100171.97;6298192;28;20504;-73
2021/01/12 11:38:24;;;;;;;18.17;2.38;;;;;;;3.48;100.00;100172.28;6297641;28;20132;-73
2021/01/12 11:41:26;;;;;;;16.23;2.20;;;;;;;3.75;100.00;100165.28;6297734;28;20059;-73
2021/01/12 11:44:27;;;;;;;19.10;1.92;;;;;;;3.73;100.00;100167.94;6297763;28;20056;-74
2021/01/12 11:47:29;;;;;;;10.43;2.90;;;;;;;3.83;100.00;100167.63;6297532;28;20141;-74
2021/01/12 11:50:29;;;;;;;18.63;2.25;;;;;;;3.75;99.93;100173.09;6294831;28;20121;-72
2021/01/12 11:53:30;;;;;;;22.00;1.92;;;;;;;3.74;99.31;100171.41;6273187;28;20045;-74
2021/01/12 11:56:31;;;;;;;16.15;2.30;;;;;;;3.62;100.00;100166.63;6278891;28;20064;-74
2021/01/12 11:59:34;;;;;;;10.10;1.45;;;;;;;3.69;100.00;100183.69;6297312;28;20594;-74
2021/01/12 12:02:35;;;;;;;13.95;1.83;;;;;;;3.86;100.00;100176.19;6297502;28;20051;-76
2021/01/12 12:05:36;;;;;;;11.15;1.95;;;;;;;3.84;100.00;100177.13;6297698;28;20064;-75
2021/01/12 12:08:37;;;;;;;13.02;1.88;;;;;;;4.26;96.62;100178.19;6296807;28;20056;-74
2021/01/12 12:11:39;;;;;;;15.07;1.88;;;;;;;4.12;96.26;100183.03;6297031;28;20053;-73
2021/01/12 12:14:40;;;;;;;10.57;1.40;;;;;;;4.19;96.75;100173.28;6297181;28;20044;-74
2021/01/12 12:17:41;;;;;;;16.13;1.63;;;;;;;4.55;90.42;100179.72;6298777;28;20056;-75
2021/01/12 12:20:43;;;;;;;8.93;1.17;;;;;;;4.58;88.85;100189.97;6303751;28;20044;-76
2021/01/12 12:23:44;;;;;;;12.45;1.35;;;;;;;4.44;86.19;100174.06;6308971;28;20047;-74
2021/01/12 12:26:46;;;;;;;23.17;1.63;;;;;;;4.45;85.06;100173.16;6306774;28;20048;-73
2021/01/12 12:29:47;;;;;;;9.18;1.40;;;;;;;4.47;85.41;100176.56;6308147;28;20105;-74
2021/01/12 12:32:49;;;;;;;10.00;1.38;;;;;;;4.32;90.09;100166.72;6307409;28;20069;-74
2021/01/12 12:35:50;;;;;;;8.90;1.20;;;;;;;4.40;89.23;100169.88;6307754;28;20535;-73
2021/01/12 12:38:51;;;;;;;8.55;1.15;;;;;;;4.57;83.61;100161.44;6306973;28;20048;-76
2021/01/12 12:41:52;;;;;;;6.68;1.40;;;;;;;4.40;84.24;100164.66;6321072;28;20044;-73
2021/01/12 12:44:53;;;;;;;14.02;1.83;;;;;;;4.33;87.54;100171.84;6321456;28;20404;-73
2021/01/12 12:47:55;;;;;;;15.70;1.40;;;;;;;4.48;86.09;100177.38;6312144;28;20048;-73
2021/01/12 12:50:56;;;;;;;8.02;1.40;;;;;;;4.46;84.77;100169.66;6298363;28;20118;-74
2021/01/12 12:53:58;;;;;;;7.68;1.25;;;;;;;4.48;82.28;100170.44;6306611;28;20386;-73
2021/01/12 12:56:59;;;;;;;12.80;1.75;;;;;;;4.37;83.28;100172.59;6303232;28;20041;-74
2021/01/12 13:00:00;;;;;;;12.35;1.80;;;;;;;4.20;84.93;100175.81;6297273;28;20132;-75
2021/01/12 13:03:03;;;;;;;16.45;3.45;;;;;;;4.17;83.40;100181.13;6295483;28;20563;-73
2021/01/12 13:06:05;;;;;;;8.88;1.02;;;;;;;4.15;84.66;100192.50;6296145;28;20048;-73
2021/01/12 13:09:08;;;;;;;7.10;1.17;;;;;;;4.03;83.04;100205.00;6295606;28;20045;-72
2021/01/12 13:12:17;;;;;;;6.97;1.10;;;;;;;3.85;84.91;100202.19;6295915;28;20399;-72
2021/01/12 13:15:19;;;;;;;10.70;1.10;;;;;;;3.87;84.35;100193.47;6296562;28;20055;-73
2021/01/12 13:18:23;;;;;;;4.85;0.98;;;;;;;3.73;86.19;100204.34;6295354;28;20056;-74
2021/01/12 13:21:24;;;;;;;12.68;1.48;;;;;;;3.69;85.99;100207.94;6294919;28;20048;-73
2021/01/12 13:24:26;;;;;;;7.80;1.35;;;;;;;3.97;85.25;100210.44;6295522;28;20045;-75
2021/01/12 13:27:28;;;;;;;9.57;1.33;;;;;;;3.67;85.56;100214.06;6295757;28;20052;-73
2021/01/12 13:30:29;;;;;;;6.63;1.15;;;;;;;3.77;85.66;100213.72;6295320;28;20052;-74
2021/01/12 13:33:30;;;;;;;7.28;0.95;;;;;;;3.70;86.05;100207.03;6295414;28;20051;-73
2021/01/12 13:36:34;;;;;;;11.30;1.40;;;;;;;3.74;85.48;100213.81;6295215;28;20045;-73
2021/01/12 13:39:34;;;;;;;10.77;1.27;;;;;;;3.89;83.70;100224.59;6295581;28;20127;-72
2021/01/12 13:42:35;;;;;;;8.98;1.48;;;;;;;3.89;83.94;100215.03;6295433;28;20612;-73
2021/01/12 13:45:36;;;;;;;6.47;1.50;;;;;;;3.96;85.02;100213.94;6295494;28;20441;-73
2021/01/12 13:48:38;;;;;;;10.75;1.35;;;;;;;3.97;84.88;100217.38;6350802;22;20047;-70
2021/01/12 13:51:41;;;;;;;7.38;1.48;;;;;;;4.01;85.69;100222.44;6346590;28;20089;-70
2021/01/12 13:54:42;;;;;;;13.15;1.38;;;;;;;4.08;84.71;100223.88;6351119;28;20065;-70
2021/01/12 13:57:54;;;;;;;12.77;1.83;;;;;;;4.23;82.73;100227.72;6350574;28;20043;-71